createdAt,value
2023-01-18T00:01:50.585Z,84.48
2023-01-18T00:04:21.884Z,84.89
2023-01-18T00:06:57.662Z,84.97
2023-01-18T00:09:28.650Z,85.18
2023-01-18T00:11:58.042Z,84.78
2023-01-18T00:14:26.635Z,85.16
2023-01-18T00:16:56.702Z,85.03
2023-01-18T00:19:26.864Z,85.26
2023-01-18T00:22:01.604Z,85.33
2023-01-18T00:24:34.318Z,85.10
2023-01-18T00:27:03.117Z,85.25
2023-01-18T00:29:32.719Z,84.97
2023-01-18T00:32:01.549Z,85.64
2023-01-18T00:34:30.803Z,85.54
2023-01-18T00:37:03.803Z,85.70
2023-01-18T00:39:41.151Z,85.55
2023-01-18T00:42:27.184Z,85.44
2023-01-18T00:44:57.535Z,85.54
2023-01-18T00:47:27.230Z,85.29
2023-01-18T00:49:56.742Z,85.92
2023-01-18T00:52:26.571Z,85.68
2023-01-18T00:55:00.534Z,85.53
2023-01-18T00:57:40.223Z,86.07
2023-01-18T01:00:16.670Z,86.06
2023-01-18T01:02:51.894Z,85.76
2023-01-18T01:05:43.982Z,85.71
2023-01-18T01:08:17.478Z,85.72
2023-01-18T01:10:52.447Z,86.04
2023-01-18T01:13:41.980Z,86.10
2023-01-18T01:16:39.367Z,85.99
2023-01-18T01:19:25.808Z,86.05
2023-01-18T01:22:13.346Z,86.26
2023-01-18T01:24:59.441Z,85.48
2023-01-18T01:27:30.435Z,85.92
2023-01-18T01:29:59.826Z,85.89
2023-01-18T01:32:29.104Z,86.17
2023-01-18T01:34:58.134Z,85.72
2023-01-18T01:37:31.205Z,86.14
2023-01-18T01:40:08.661Z,86.14
2023-01-18T01:42:39.196Z,85.95
2023-01-18T01:45:10.466Z,86.28
2023-01-18T01:47:46.421Z,86.30
2023-01-18T01:50:28.339Z,86.57
2023-01-18T01:53:02.764Z,86.18
2023-01-18T01:55:35.054Z,86.33
2023-01-18T01:58:10.768Z,86.46
2023-01-18T02:00:39.813Z,86.37
2023-01-18T02:03:16.208Z,86.57
2023-01-18T02:05:51.033Z,86.76
2023-01-18T02:08:23.697Z,87.08
2023-01-18T02:10:53.883Z,86.61
2023-01-18T02:13:29.555Z,86.70
2023-01-18T02:16:09.871Z,86.92
2023-01-18T02:18:50.055Z,86.71
2023-01-18T02:21:21.051Z,86.51
2023-01-18T02:24:52.387Z,86.85
2023-01-18T02:27:26.957Z,86.80
2023-01-18T02:30:14.760Z,86.91
2023-01-18T02:32:57.200Z,86.69
2023-01-18T02:35:44.546Z,86.85
2023-01-18T02:38:18.694Z,86.70
2023-01-18T02:41:02.683Z,86.85
2023-01-18T02:43:48.725Z,86.76
2023-01-18T02:46:43.587Z,87.06
2023-01-18T02:49:33.298Z,87.20
2023-01-18T02:52:03.722Z,86.90
2023-01-18T02:54:38.840Z,86.79
2023-01-18T02:57:23.230Z,87.07
2023-01-18T02:59:56.223Z,87.09
2023-01-18T03:02:28.543Z,86.79
2023-01-18T03:05:02.341Z,87.00
2023-01-18T03:07:46.175Z,87.15
2023-01-18T03:10:22.414Z,86.85
2023-01-18T03:13:00.724Z,87.09
2023-01-18T03:15:41.240Z,87.11
2023-01-18T03:18:19.471Z,87.09
2023-01-18T03:20:54.903Z,86.90
2023-01-18T03:23:44.237Z,87.26
2023-01-18T03:26:19.776Z,87.54
2023-01-18T03:29:11.722Z,87.16
2023-01-18T03:32:02.357Z,87.02
2023-01-18T03:34:43.237Z,87.14
2023-01-18T03:37:17.877Z,87.10
2023-01-18T03:39:57.775Z,87.14
2023-01-18T03:42:32.652Z,87.28
2023-01-18T03:45:11.567Z,87.20
2023-01-18T03:47:50.703Z,87.74
2023-01-18T03:50:29.885Z,87.54
2023-01-18T03:53:05.608Z,87.52
2023-01-18T03:55:44.640Z,87.13
2023-01-18T03:58:22.711Z,87.65
2023-01-18T04:00:54.869Z,87.70
2023-01-18T04:03:23.478Z,87.45
2023-01-18T04:06:01.160Z,88.04
2023-01-18T04:08:29.825Z,87.76
2023-01-18T04:10:58.548Z,88.02
2023-01-18T04:13:27.507Z,87.76
2023-01-18T04:15:56.187Z,87.73
2023-01-18T04:18:38.743Z,87.98
2023-01-18T04:21:08.953Z,87.79
2023-01-18T04:23:37.566Z,87.90
2023-01-18T04:26:06.810Z,87.78
2023-01-18T04:28:35.572Z,88.09
2023-01-18T04:31:05.622Z,87.61
2023-01-18T04:33:40.145Z,88.04
2023-01-18T04:36:10.900Z,87.82
2023-01-18T04:38:40.757Z,88.36
2023-01-18T04:41:09.655Z,87.85
2023-01-18T04:43:40.550Z,87.87
2023-01-18T04:46:08.995Z,87.82
2023-01-18T04:48:37.619Z,88.13
2023-01-18T04:51:06.477Z,87.89
2023-01-18T04:53:37.891Z,87.95
2023-01-18T04:56:06.764Z,87.96
2023-01-18T04:58:35.710Z,88.01
2023-01-18T05:01:04.549Z,88.26
2023-01-18T05:03:38.253Z,88.40
2023-01-18T05:06:08.424Z,88.04
2023-01-18T05:08:41.108Z,88.39
2023-01-18T05:11:12.226Z,88.57
2023-01-18T05:13:41.365Z,88.52
2023-01-18T05:16:14.713Z,87.91
2023-01-18T05:18:43.440Z,88.01
2023-01-18T05:21:12.072Z,88.50
2023-01-18T05:23:53.894Z,88.84
2023-01-18T05:26:24.813Z,88.67
2023-01-18T05:28:58.686Z,88.51
2023-01-18T05:31:27.495Z,88.15
2023-01-18T05:33:57.908Z,88.58
2023-01-18T05:36:26.355Z,88.52
2023-01-18T05:38:56.169Z,88.18
2023-01-18T05:41:25.080Z,88.33
2023-01-18T05:43:53.512Z,88.38
2023-01-18T05:46:22.224Z,88.79
2023-01-18T05:48:50.700Z,88.61
2023-01-18T05:51:18.995Z,88.42
2023-01-18T05:53:47.238Z,88.63
2023-01-18T05:56:17.180Z,88.56
2023-01-18T05:58:45.633Z,88.72
2023-01-18T06:01:14.063Z,88.63
2023-01-18T06:03:42.664Z,88.26
2023-01-18T06:06:11.193Z,88.50
2023-01-18T06:08:39.508Z,88.72
2023-01-18T06:11:08.002Z,88.45
2023-01-18T06:13:37.775Z,88.82
2023-01-18T06:16:07.198Z,88.59
2023-01-18T06:18:37.093Z,88.80
2023-01-18T06:21:07.789Z,88.85
2023-01-18T06:23:36.317Z,88.84
2023-01-18T06:26:04.955Z,88.63
2023-01-18T06:28:33.804Z,89.05
2023-01-18T06:31:05.891Z,88.73
2023-01-18T06:33:34.223Z,88.62
2023-01-18T06:36:02.712Z,88.51
2023-01-18T06:38:31.350Z,88.71
2023-01-18T06:40:59.946Z,88.65
2023-01-18T06:43:28.481Z,88.40
2023-01-18T06:45:58.021Z,88.87
2023-01-18T06:48:29.846Z,88.60
2023-01-18T06:50:59.094Z,88.81
2023-01-18T06:53:27.917Z,88.61
2023-01-18T06:55:58.449Z,88.74
2023-01-18T06:58:28.162Z,88.88
2023-01-18T07:00:57.499Z,88.67
2023-01-18T07:03:28.911Z,88.67
2023-01-18T07:05:58.735Z,88.87
2023-01-18T07:08:28.480Z,88.77
2023-01-18T07:10:57.547Z,88.88
2023-01-18T07:13:27.050Z,88.51
2023-01-18T07:15:57.991Z,88.76
2023-01-18T07:18:30.859Z,88.54
2023-01-18T07:21:00.814Z,88.86
2023-01-18T07:23:30.675Z,88.73
2023-01-18T07:26:03.957Z,88.94
2023-01-18T07:28:33.498Z,88.85
2023-01-18T07:31:02.780Z,88.68
2023-01-18T07:33:32.800Z,89.07
2023-01-18T07:36:01.561Z,88.77
2023-01-18T07:38:31.074Z,88.58
2023-01-18T07:41:02.697Z,88.77
2023-01-18T07:43:31.657Z,88.38
2023-01-18T07:46:01.001Z,88.49
2023-01-18T07:48:31.633Z,88.73
2023-01-18T07:51:02.534Z,88.73
2023-01-18T07:53:34.315Z,88.97
2023-01-18T07:56:04.182Z,88.95
2023-01-18T07:58:32.729Z,89.07
2023-01-18T08:01:05.784Z,88.89
2023-01-18T08:03:36.417Z,88.89
2023-01-18T08:06:07.153Z,88.95
2023-01-18T08:08:36.434Z,89.09
2023-01-18T08:11:08.423Z,88.87
2023-01-18T08:13:37.092Z,89.02
2023-01-18T08:16:08.667Z,88.61
2023-01-18T08:18:38.372Z,88.69
2023-01-18T08:21:11.082Z,88.67
2023-01-18T08:23:39.747Z,88.92
2023-01-18T08:26:09.766Z,88.61
2023-01-18T08:28:38.610Z,88.84
2023-01-18T08:31:11.667Z,89.06
2023-01-18T08:33:45.503Z,88.75
2023-01-18T08:36:16.631Z,88.65
2023-01-18T08:38:49.735Z,88.89
2023-01-18T08:41:18.440Z,88.54
2023-01-18T08:43:51.266Z,88.82
2023-01-18T08:46:20.166Z,88.75
2023-01-18T08:48:52.587Z,88.74
2023-01-18T08:51:24.442Z,88.79
2023-01-18T08:53:54.577Z,89.14
2023-01-18T08:56:23.378Z,88.87
2023-01-18T08:58:52.972Z,88.94
2023-01-18T09:01:23.163Z,88.73
2023-01-18T09:03:55.770Z,88.93
2023-01-18T09:06:24.400Z,89.02
2023-01-18T09:08:53.314Z,88.76
2023-01-18T09:11:22.177Z,88.59
2023-01-18T09:14:00.623Z,88.50
2023-01-18T09:16:30.074Z,88.80
2023-01-18T09:19:00.428Z,88.75
2023-01-18T09:21:29.609Z,88.83
2023-01-18T09:23:59.444Z,88.52
2023-01-18T09:26:28.441Z,88.45
2023-01-18T09:28:57.392Z,88.48
2023-01-18T09:31:28.488Z,88.61
2023-01-18T09:34:09.615Z,88.70
2023-01-18T09:36:48.069Z,88.91
2023-01-18T09:39:16.374Z,88.80
2023-01-18T09:41:48.971Z,88.08
2023-01-18T09:44:24.674Z,88.30
2023-01-18T09:46:56.925Z,88.35
2023-01-18T09:49:36.866Z,88.85
2023-01-18T09:52:25.313Z,88.53
2023-01-18T09:55:05.685Z,88.82
2023-01-18T09:57:50.469Z,88.53
2023-01-18T10:00:23.974Z,87.93
2023-01-18T10:03:01.062Z,88.55
2023-01-18T10:05:33.991Z,88.14
2023-01-18T10:08:14.873Z,87.82
2023-01-18T10:10:52.351Z,87.98
2023-01-18T10:13:40.679Z,88.11
2023-01-18T10:16:15.584Z,88.72
2023-01-18T10:18:48.378Z,88.36
2023-01-18T10:21:28.090Z,88.12
2023-01-18T10:24:26.343Z,87.86
2023-01-18T10:27:03.721Z,88.26
2023-01-18T10:29:52.167Z,87.73
2023-01-18T10:32:24.687Z,88.02
2023-01-18T10:34:55.062Z,87.70
2023-01-18T10:37:36.359Z,88.10
2023-01-18T10:40:10.395Z,87.90
2023-01-18T10:42:47.522Z,87.44
2023-01-18T10:45:20.288Z,87.61
2023-01-18T10:47:49.424Z,88.25
2023-01-18T10:50:24.731Z,87.26
2023-01-18T10:52:53.603Z,87.58
2023-01-18T10:55:23.771Z,88.11
2023-01-18T10:57:55.288Z,87.29
2023-01-18T11:00:31.609Z,87.36
2023-01-18T11:03:02.127Z,87.61
2023-01-18T11:05:34.486Z,87.33
2023-01-18T11:08:13.762Z,87.86
2023-01-18T11:10:45.368Z,87.68
2023-01-18T11:13:27.618Z,87.55
2023-01-18T11:16:12.814Z,87.64
2023-01-18T11:19:02.113Z,86.45
2023-01-18T11:21:46.128Z,87.20
2023-01-18T11:24:18.634Z,87.35
2023-01-18T11:27:01.864Z,87.05
2023-01-18T11:29:33.362Z,86.37
2023-01-18T11:32:08.693Z,86.21
2023-01-18T11:34:41.516Z,86.35
2023-01-18T11:37:31.228Z,86.53
2023-01-18T11:40:00.535Z,86.33
2023-01-18T11:42:35.293Z,86.00
2023-01-18T11:45:20.438Z,86.05
2023-01-18T11:48:03.066Z,86.05
2023-01-18T11:50:39.948Z,85.55
2023-01-18T11:53:28.017Z,86.39
2023-01-18T11:56:06.633Z,85.44
2023-01-18T11:58:38.143Z,85.53
2023-01-18T12:01:39.318Z,86.13
2023-01-18T12:04:13.617Z,85.57
2023-01-18T12:06:55.693Z,86.03
2023-01-18T12:09:35.041Z,85.89
2023-01-18T12:12:37.307Z,85.33
2023-01-18T12:15:30.680Z,84.99
2023-01-18T12:18:15.664Z,85.81
2023-01-18T12:20:54.759Z,85.10
2023-01-18T12:23:52.521Z,85.62
2023-01-18T12:26:39.693Z,85.18
2023-01-18T12:29:34.693Z,84.41
2023-01-18T12:32:22.771Z,84.20
2023-01-18T12:35:22.635Z,85.16
2023-01-18T12:38:04.659Z,84.31
2023-01-18T12:40:53.534Z,84.86
2023-01-18T12:43:38.777Z,83.89
2023-01-18T12:46:11.953Z,84.06
2023-01-18T12:48:51.211Z,84.39
2023-01-18T12:51:23.228Z,83.66
2023-01-18T12:53:56.832Z,83.73
2023-01-18T12:56:33.118Z,83.28
2023-01-18T12:59:07.524Z,83.25
2023-01-18T13:01:42.830Z,83.87
2023-01-18T13:04:22.266Z,82.81
2023-01-18T13:06:52.193Z,82.89
2023-01-18T13:09:24.350Z,82.84
2023-01-18T13:11:53.631Z,83.09
2023-01-18T13:14:29.286Z,82.56
2023-01-18T13:17:04.872Z,82.50
2023-01-18T13:19:42.971Z,82.40
2023-01-18T13:22:23.913Z,81.53
2023-01-18T13:25:26.934Z,80.64
2023-01-18T13:28:01.675Z,80.44
2023-01-18T13:30:33.152Z,80.17
2023-01-18T13:33:01.930Z,79.11
2023-01-18T13:35:35.985Z,79.29
2023-01-18T13:38:13.171Z,77.68
2023-01-18T13:40:44.600Z,78.90
2023-01-18T13:44:07.668Z,77.95
2023-01-18T13:46:41.614Z,78.51
2023-01-18T13:49:38.202Z,78.65
2023-01-18T13:52:33.741Z,78.44
2023-01-18T13:55:09.083Z,78.44
2023-01-18T13:57:40.809Z,78.37
2023-01-18T14:00:25.679Z,78.32
2023-01-18T14:02:57.707Z,78.35
2023-01-18T14:05:29.801Z,78.36
2023-01-18T14:08:02.565Z,78.08
2023-01-18T14:10:36.961Z,77.61
2023-01-18T14:13:08.276Z,77.68
2023-01-18T14:15:56.165Z,77.41
2023-01-18T14:18:27.455Z,77.55
2023-01-18T14:21:27.451Z,77.71
2023-01-18T14:24:45.940Z,77.66
2023-01-18T14:27:21.689Z,77.59
2023-01-18T14:29:55.172Z,77.33
2023-01-18T14:32:28.201Z,78.04
2023-01-18T14:35:01.496Z,77.71
2023-01-18T14:37:32.176Z,77.36
2023-01-18T14:40:21.242Z,78.26
2023-01-18T14:42:55.919Z,77.54
2023-01-18T14:45:29.118Z,78.00
2023-01-18T14:48:01.663Z,77.99
2023-01-18T14:50:37.814Z,77.98
2023-01-18T14:53:08.624Z,77.81
2023-01-18T14:55:39.356Z,78.37
2023-01-18T14:58:17.504Z,77.90
2023-01-18T15:00:49.217Z,77.89
2023-01-18T15:03:26.313Z,77.66
2023-01-18T15:06:03.135Z,78.53
2023-01-18T15:08:35.794Z,78.59
2023-01-18T15:11:06.625Z,77.75
2023-01-18T15:13:47.544Z,78.26
2023-01-18T15:16:20.485Z,78.10
2023-01-18T15:18:50.249Z,78.93
2023-01-18T15:21:24.024Z,78.71
2023-01-18T15:23:54.458Z,78.46
2023-01-18T15:26:42.585Z,79.11
2023-01-18T15:29:17.625Z,79.07
2023-01-18T15:31:53.771Z,79.33
2023-01-18T15:34:29.405Z,78.99
2023-01-18T15:37:01.021Z,78.87
2023-01-18T15:39:29.917Z,78.49
2023-01-18T15:42:06.798Z,78.50
2023-01-18T15:44:42.640Z,79.22
2023-01-18T15:47:26.756Z,78.72
2023-01-18T15:49:58.081Z,79.12
2023-01-18T15:52:43.875Z,78.37
2023-01-18T15:55:24.509Z,79.14
2023-01-18T15:58:01.408Z,79.12
2023-01-18T16:00:33.813Z,79.21
2023-01-18T16:03:03.735Z,78.76
2023-01-18T16:05:33.582Z,79.28
2023-01-18T16:08:21.412Z,79.57
2023-01-18T16:10:53.527Z,79.53
2023-01-18T16:13:42.773Z,78.98
2023-01-18T16:16:23.568Z,79.15
2023-01-18T16:19:02.292Z,79.64
2023-01-18T16:21:44.631Z,79.66
2023-01-18T16:24:28.830Z,79.07
2023-01-18T16:26:58.733Z,79.21
2023-01-18T16:29:28.521Z,79.80
2023-01-18T16:32:27.960Z,79.88
2023-01-18T16:34:59.390Z,79.38
2023-01-18T16:37:28.398Z,80.04
2023-01-18T16:39:57.090Z,79.33
2023-01-18T16:42:37.138Z,79.90
2023-01-18T16:45:14.831Z,79.88
2023-01-18T16:47:44.308Z,79.64
2023-01-18T16:50:16.308Z,80.03
2023-01-18T16:52:45.655Z,80.26
2023-01-18T16:55:14.861Z,80.21
2023-01-18T16:57:45.643Z,80.87
2023-01-18T17:00:20.359Z,80.99
2023-01-18T17:02:49.275Z,80.11
2023-01-18T17:05:18.643Z,80.66
2023-01-18T17:07:47.875Z,81.46
2023-01-18T17:10:26.168Z,81.07
2023-01-18T17:12:55.375Z,82.09
2023-01-18T17:15:27.762Z,82.01
2023-01-18T17:17:56.151Z,82.76
2023-01-18T17:20:27.316Z,83.53
2023-01-18T17:22:56.981Z,82.81
2023-01-18T17:25:26.100Z,83.77
2023-01-18T17:27:58.083Z,83.69
2023-01-18T17:30:28.591Z,84.54
2023-01-18T17:32:58.046Z,84.17
2023-01-18T17:35:28.623Z,84.22
2023-01-18T17:38:04.890Z,83.82
2023-01-18T17:40:43.883Z,84.66
2023-01-18T17:43:17.333Z,85.18
2023-01-18T17:46:00.525Z,85.17
2023-01-18T17:48:30.463Z,84.86
2023-01-18T17:50:59.223Z,85.68
2023-01-18T17:53:27.803Z,84.68
2023-01-18T17:55:56.584Z,85.43
2023-01-18T17:58:24.991Z,85.40
2023-01-18T18:00:55.457Z,85.26
2023-01-18T18:03:24.093Z,86.22
2023-01-18T18:05:59.665Z,86.21
2023-01-18T18:08:28.142Z,86.89
2023-01-18T18:10:56.665Z,85.95
2023-01-18T18:13:25.092Z,86.55
2023-01-18T18:15:55.555Z,86.16
2023-01-18T18:18:25.694Z,86.60
2023-01-18T18:20:58.821Z,86.71
2023-01-18T18:23:28.429Z,87.24
2023-01-18T18:25:57.743Z,86.69
2023-01-18T18:28:29.513Z,86.73
2023-01-18T18:31:00.517Z,87.62
2023-01-18T18:33:29.906Z,87.63
2023-01-18T18:35:59.094Z,87.48
2023-01-18T18:38:27.789Z,87.57
2023-01-18T18:41:03.800Z,88.35
2023-01-18T18:43:32.463Z,88.25
2023-01-18T18:46:02.740Z,87.59
2023-01-18T18:48:31.596Z,88.83
2023-01-18T18:51:00.105Z,87.98
2023-01-18T18:53:37.394Z,87.68
2023-01-18T18:56:09.717Z,88.16
2023-01-18T18:58:39.885Z,88.20
2023-01-18T19:01:20.639Z,88.35
2023-01-18T19:03:50.786Z,88.33
2023-01-18T19:06:21.645Z,89.26
2023-01-18T19:08:51.194Z,88.95
2023-01-18T19:11:20.198Z,88.91
2023-01-18T19:13:49.659Z,88.68
2023-01-18T19:16:20.089Z,89.68
2023-01-18T19:18:49.111Z,88.93
2023-01-18T19:21:18.426Z,88.81
2023-01-18T19:23:47.213Z,89.17
2023-01-18T19:26:15.758Z,89.05
2023-01-18T19:28:44.764Z,90.31
2023-01-18T19:31:13.140Z,89.85
2023-01-18T19:33:43.391Z,89.41
2023-01-18T19:36:14.825Z,89.89
2023-01-18T19:38:48.086Z,90.51
2023-01-18T19:41:19.836Z,89.99
2023-01-18T19:43:50.810Z,89.63
2023-01-18T19:46:20.379Z,90.21
2023-01-18T19:48:50.426Z,90.76
2023-01-18T19:51:23.173Z,89.90
2023-01-18T19:53:54.579Z,89.55
2023-01-18T19:56:24.405Z,89.86
2023-01-18T19:58:53.444Z,89.79
2023-01-18T20:01:35.197Z,90.94
2023-01-18T20:04:07.226Z,89.73
2023-01-18T20:06:37.561Z,90.47
2023-01-18T20:09:17.783Z,90.78
2023-01-18T20:11:47.846Z,90.37
2023-01-18T20:14:16.653Z,90.98
2023-01-18T20:16:46.237Z,91.36
2023-01-18T20:19:17.461Z,90.63
2023-01-18T20:21:46.091Z,91.79
2023-01-18T20:24:14.526Z,90.99
2023-01-18T20:26:42.944Z,91.52
2023-01-18T20:29:11.870Z,90.88
2023-01-18T20:31:44.615Z,90.66
2023-01-18T20:34:18.259Z,91.07
2023-01-18T20:36:50.101Z,90.93
2023-01-18T20:39:20.037Z,91.68
2023-01-18T20:41:50.249Z,91.81
2023-01-18T20:44:18.749Z,91.27
2023-01-18T20:46:47.566Z,91.22
2023-01-18T20:49:24.505Z,91.95
2023-01-18T20:51:55.798Z,91.22
2023-01-18T20:54:24.316Z,91.75
2023-01-18T20:56:53.224Z,91.51
2023-01-18T20:59:21.906Z,91.58
2023-01-18T21:01:50.814Z,91.09
2023-01-18T21:04:21.534Z,91.66
2023-01-18T21:06:50.078Z,91.80
2023-01-18T21:09:18.960Z,92.56
2023-01-18T21:11:47.284Z,91.49
2023-01-18T21:14:16.053Z,91.99
2023-01-18T21:16:45.230Z,91.33
2023-01-18T21:19:13.716Z,91.56
2023-01-18T21:21:44.762Z,92.22
2023-01-18T21:24:13.129Z,91.67
2023-01-18T21:26:41.590Z,91.86
2023-01-18T21:29:09.977Z,92.21
2023-01-18T21:31:40.207Z,92.01
2023-01-18T21:34:10.465Z,92.54
2023-01-18T21:36:39.216Z,92.35
2023-01-18T21:39:18.707Z,91.90
2023-01-18T21:42:04.817Z,92.00
2023-01-18T21:45:01.914Z,92.44
2023-01-18T21:47:30.602Z,92.39
2023-01-18T21:50:18.511Z,92.05
2023-01-18T21:53:04.737Z,92.09
2023-01-18T21:55:35.868Z,92.65
2023-01-18T21:58:21.752Z,92.54
2023-01-18T22:00:50.142Z,92.44
2023-01-18T22:03:18.651Z,93.23
2023-01-18T22:05:46.949Z,92.33
2023-01-18T22:08:15.392Z,92.34
2023-01-18T22:10:47.873Z,92.00
2023-01-18T22:13:16.622Z,92.25
2023-01-18T22:15:45.270Z,92.16
2023-01-18T22:18:13.706Z,92.90
2023-01-18T22:20:42.475Z,92.42
2023-01-18T22:23:10.901Z,92.56
2023-01-18T22:25:39.316Z,92.39
2023-01-18T22:28:09.106Z,92.28
2023-01-18T22:30:37.921Z,93.38
2023-01-18T22:33:06.782Z,93.29
2023-01-18T22:35:35.173Z,92.91
2023-01-18T22:38:03.958Z,92.56
2023-01-18T22:40:32.493Z,92.69
2023-01-18T22:43:01.203Z,93.58
2023-01-18T22:45:31.172Z,93.69
2023-01-18T22:47:59.923Z,93.22
2023-01-18T22:50:28.657Z,93.14
2023-01-18T22:52:57.294Z,93.11
2023-01-18T22:55:25.732Z,93.57
2023-01-18T22:57:54.217Z,93.69
2023-01-18T23:00:23.013Z,93.28
2023-01-18T23:02:53.096Z,93.65
2023-01-18T23:05:21.863Z,92.93
2023-01-18T23:07:50.427Z,92.87
2023-01-18T23:10:19.074Z,93.56
2023-01-18T23:12:47.490Z,93.51
2023-01-18T23:15:33.238Z,93.06
2023-01-18T23:18:03.107Z,92.95
2023-01-18T23:20:31.549Z,93.40
2023-01-18T23:22:59.930Z,93.47
2023-01-18T23:25:28.435Z,93.17
2023-01-18T23:27:59.332Z,93.73
2023-01-18T23:30:27.893Z,93.93
2023-01-18T23:32:56.467Z,93.59
2023-01-18T23:35:26.368Z,93.80
2023-01-18T23:37:54.937Z,93.57
2023-01-18T23:40:41.198Z,92.97
2023-01-18T23:43:26.997Z,93.55
2023-01-18T23:46:12.869Z,93.24
2023-01-18T23:48:58.905Z,93.00
2023-01-18T23:51:46.685Z,93.62
2023-01-18T23:54:18.828Z,93.36
2023-01-18T23:56:48.815Z,93.55
2023-01-18T23:59:17.320Z,93.01
